Time;durP1;ratioP1;P1;durP2;ratioP2;P2;SDS_P1;SDS_P2;PMS_P1;PMS_P2;Temp;Humidity;BMP_temperature;BMP_pressure;BME280_temperature;BME280_humidity;BME280_pressure;Samples;Min_cycle;Max_cycle;Signal;HPM_P1;HPM_P2
2021/07/25 00:00:02;;;;;;;16.27;14.57;;;20.80;99.90;;;;;;4965581;28;20504;-86
2021/07/25 00:02:34;;;;;;;17.90;14.50;;;20.80;99.90;;;;;;4997370;28;20490;-86
2021/07/25 00:05:03;;;;;;;16.33;14.83;;;20.80;99.90;;;;;;4972683;28;20455;-87
2021/07/25 00:07:30;;;;;;;14.83;13.43;;;20.60;99.90;;;;;;4985821;28;20610;-86
2021/07/25 00:09:57;;;;;;;15.73;13.97;;;20.70;99.90;;;;;;4984315;28;20882;-86
2021/07/25 00:12:24;;;;;;;15.80;14.20;;;20.60;99.90;;;;;;4985068;28;20514;-87
2021/07/25 00:14:52;;;;;;;15.27;13.73;;;20.70;99.90;;;;;;4985149;28;20450;-86
2021/07/25 00:17:22;;;;;;;15.10;13.60;;;20.80;99.90;;;;;;5001777;28;20984;-87
2021/07/25 00:19:52;;;;;;;13.93;12.63;;;20.70;99.90;;;;;;4986056;28;20455;-86
2021/07/25 00:22:20;;;;;;;16.63;12.93;;;20.60;99.90;;;;;;4985746;28;20451;-86
2021/07/25 00:24:51;;;;;;;13.13;11.93;;;20.50;99.90;;;;;;4990338;28;20455;-87
2021/07/25 00:27:27;;;;;;;14.97;13.03;;;20.70;99.90;;;;;;4987416;28;20510;-91
2021/07/25 00:29:53;;;;;;;14.10;12.20;;;20.60;99.90;;;;;;4999720;28;20454;-87
2021/07/25 00:32:29;;;;;;;14.43;12.93;;;20.60;99.90;;;;;;4995328;28;20531;-90
2021/07/25 00:34:56;;;;;;;15.07;12.97;;;20.40;99.90;;;;;;4993545;28;20501;-86
2021/07/25 00:37:54;;;;;;;13.47;12.27;;;20.50;99.90;;;;;;5010371;28;20470;-86
2021/07/25 00:40:42;;;;;;;13.40;12.00;;;20.50;99.90;;;;;;4984804;28;20490;-88
2021/07/25 00:43:22;;;;;;;13.80;12.50;;;20.70;99.90;;;;;;4979220;28;20498;-87
2021/07/25 00:45:50;;;;;;;13.10;11.80;;;20.70;99.90;;;;;;4985659;28;20533;-88
2021/07/25 00:49:00;;;;;;;12.80;11.47;;;20.60;99.90;;;;;;4983574;28;20471;-88
2021/07/25 00:51:28;;;;;;;13.50;11.37;;;20.50;99.90;;;;;;4967378;28;20471;-88
2021/07/25 00:53:57;;;;;;;13.10;11.70;;;20.30;99.90;;;;;;4978417;28;20520;-88
2021/07/25 00:56:25;;;;;;;12.17;10.97;;;20.50;99.90;;;;;;4987596;28;20455;-88
2021/07/25 00:58:53;;;;;;;13.20;11.80;;;20.50;99.90;;;;;;4985704;28;20463;-87
2021/07/25 01:01:23;;;;;;;11.30;10.10;;;20.50;99.90;;;;;;4992372;28;20455;-92
2021/07/25 01:03:57;;;;;;;12.03;10.83;;;20.60;99.90;;;;;;4999650;28;20436;-91
2021/07/25 01:06:42;;;;;;;13.00;9.60;;;20.70;99.90;;;;;;4999480;28;20454;-91
2021/07/25 01:09:48;;;;;;;11.37;8.47;;;20.50;99.90;;;;;;4992118;28;20456;-87
2021/07/25 01:12:20;;;;;;;11.93;8.83;;;20.50;99.90;;;;;;4982139;28;20478;-86
2021/07/25 01:15:03;;;;;;;10.20;9.20;;;20.40;99.90;;;;;;4994614;28;20462;-87
2021/07/25 01:17:37;;;;;;;10.93;10.03;;;20.50;99.90;;;;;;4986395;28;20558;-87
2021/07/25 01:20:10;;;;;;;10.20;9.30;;;20.50;99.90;;;;;;4978921;28;20510;-89
2021/07/25 01:22:49;;;;;;;11.43;9.27;;;20.60;99.90;;;;;;5001964;28;20538;-92
2021/07/25 01:25:25;;;;;;;11.50;10.23;;;20.70;99.90;;;;;;5083248;23;20564;-88
2021/07/25 01:28:17;;;;;;;10.33;9.40;;;20.70;99.90;;;;;;5004512;28;20463;-85
2021/07/25 01:30:54;;;;;;;11.80;10.70;;;20.70;99.90;;;;;;4988828;28;20446;-90
2021/07/25 01:33:26;;;;;;;10.57;9.47;;;20.40;99.90;;;;;;4990772;28;20550;-87
2021/07/25 01:36:07;;;;;;;11.50;9.00;;;20.40;99.90;;;;;;4997457;28;20450;-90
2021/07/25 01:38:38;;;;;;;9.53;8.53;;;20.30;99.90;;;;;;5002535;28;20485;-88
2021/07/25 01:41:12;;;;;;;11.30;8.20;;;20.40;99.90;;;;;;4991033;28;20543;-87
2021/07/25 01:43:55;;;;;;;9.53;7.60;;;20.20;99.90;;;;;;4994894;28;20461;-88
2021/07/25 01:46:25;;;;;;;10.03;8.53;;;20.20;99.90;;;;;;5001007;28;20525;-86
2021/07/25 01:48:52;;;;;;;10.10;9.07;;;20.30;99.90;;;;;;4999461;28;20471;-87
2021/07/25 01:51:19;;;;;;;9.90;8.97;;;20.10;99.90;;;;;;5004621;28;20486;-87
2021/07/25 01:53:49;;;;;;;9.43;8.53;;;20.10;99.90;;;;;;5005422;28;20447;-88
2021/07/25 01:56:20;;;;;;;9.90;8.97;;;20.10;99.90;;;;;;5003640;28;20469;-87
2021/07/25 01:58:47;;;;;;;9.87;8.87;;;20.10;99.90;;;;;;4998306;28;20457;-88
2021/07/25 02:01:14;;;;;;;11.70;10.60;;;20.10;99.90;;;;;;5006038;28;20451;-88
2021/07/25 02:03:55;;;;;;;11.30;9.80;;;20.40;99.90;;;;;;5002236;28;20496;-86
2021/07/25 02:06:22;;;;;;;13.07;10.07;;;20.30;99.90;;;;;;4995017;28;20549;-86
2021/07/25 02:08:50;;;;;;;10.53;9.53;;;20.40;99.90;;;;;;5002067;28;20464;-86
2021/07/25 02:11:18;;;;;;;10.53;9.43;;;20.10;99.90;;;;;;5001253;28;20482;-88
2021/07/25 02:13:47;;;;;;;12.47;9.60;;;20.00;99.90;;;;;;4993431;28;20506;-87
2021/07/25 02:16:30;;;;;;;10.97;9.87;;;19.90;99.90;;;;;;4993801;28;20451;-87
2021/07/25 02:18:57;;;;;;;11.70;10.60;;;19.80;99.90;;;;;;5004540;28;20496;-89
2021/07/25 02:21:24;;;;;;;10.53;9.53;;;19.80;99.90;;;;;;5017048;28;20445;-90
2021/07/25 02:23:55;;;;;;;11.10;9.23;;;19.80;99.90;;;;;;5019053;28;20454;-90
2021/07/25 02:26:22;;;;;;;10.27;9.20;;;19.70;99.90;;;;;;5014128;28;20461;-88
2021/07/25 02:28:51;;;;;;;10.43;9.23;;;19.80;99.90;;;;;;5020396;28;20525;-91
2021/07/25 02:31:41;;;;;;;11.10;9.90;;;20.00;99.90;;;;;;4997688;28;20470;-87
2021/07/25 02:34:15;;;;;;;9.63;8.63;;;20.00;99.90;;;;;;4992660;28;20512;-87
2021/07/25 02:36:43;;;;;;;9.53;8.63;;;19.70;99.90;;;;;;4996249;28;20471;-88
2021/07/25 02:39:10;;;;;;;10.13;8.90;;;19.60;99.90;;;;;;5009079;28;20439;-88
2021/07/25 02:41:58;;;;;;;10.77;8.90;;;19.60;99.90;;;;;;5002320;28;20463;-88
2021/07/25 02:44:25;;;;;;;9.63;8.33;;;19.70;99.90;;;;;;5002512;28;20446;-87
2021/07/25 02:47:00;;;;;;;11.10;8.40;;;19.60;99.90;;;;;;5027883;28;20470;-87
2021/07/25 02:49:27;;;;;;;9.80;8.80;;;19.80;99.90;;;;;;5020495;28;20426;-91
2021/07/25 02:52:02;;;;;;;11.87;9.00;;;19.70;99.90;;;;;;5020762;28;20561;-92
2021/07/25 02:54:29;;;;;;;9.47;8.47;;;19.80;99.90;;;;;;5020568;28;20508;-93
2021/07/25 02:56:58;;;;;;;9.37;8.47;;;19.90;99.90;;;;;;5021801;28;20454;-94
2021/07/25 02:59:35;;;;;;;11.80;8.57;;;19.80;99.90;;;;;;5019857;28;20438;-92
2021/07/25 03:02:02;;;;;;;9.63;8.73;;;19.70;99.90;;;;;;5016673;28;20454;-87
2021/07/25 03:04:32;;;;;;;9.07;7.70;;;19.60;99.90;;;;;;5008355;28;20486;-93
2021/07/25 03:07:00;;;;;;;10.07;8.97;;;19.80;99.90;;;;;;5068741;23;20478;-91
2021/07/25 03:09:28;;;;;;;9.63;8.70;;;19.70;99.90;;;;;;5022288;28;20466;-89
2021/07/25 03:11:58;;;;;;;9.30;7.40;;;19.70;99.90;;;;;;4997459;28;20539;-93
2021/07/25 03:14:25;;;;;;;8.80;8.00;;;19.50;99.90;;;;;;4989404;28;20439;-89
2021/07/25 03:16:52;;;;;;;11.40;7.50;;;19.30;99.90;;;;;;5004487;28;20477;-89
2021/07/25 03:19:19;;;;;;;8.43;7.63;;;19.30;99.90;;;;;;4992549;28;20450;-88
2021/07/25 03:21:49;;;;;;;8.83;7.93;;;19.30;99.90;;;;;;4996225;28;20451;-87
2021/07/25 03:24:16;;;;;;;9.07;8.13;;;19.30;99.90;;;;;;5003966;28;20502;-91
2021/07/25 03:27:04;;;;;;;8.40;7.60;;;19.50;99.90;;;;;;5025859;28;20824;-93
2021/07/25 03:29:47;;;;;;;8.97;8.03;;;19.60;99.90;;;;;;4994371;28;20444;-87
2021/07/25 03:32:18;;;;;;;9.50;8.60;;;19.80;99.90;;;;;;4993724;28;20478;-87
2021/07/25 03:34:46;;;;;;;10.20;9.23;;;19.70;99.90;;;;;;4991369;28;20514;-88
2021/07/25 03:37:16;;;;;;;9.60;8.47;;;19.80;99.90;;;;;;4982071;28;20526;-87
2021/07/25 03:39:44;;;;;;;10.13;9.07;;;19.90;99.90;;;;;;4992705;28;20477;-89
2021/07/25 03:42:12;;;;;;;11.80;9.90;;;19.80;99.90;;;;;;4987560;28;20463;-87
2021/07/25 03:44:40;;;;;;;9.83;8.93;;;19.60;99.90;;;;;;5015780;28;20537;-87
2021/07/25 03:47:09;;;;;;;9.83;8.83;;;19.40;99.90;;;;;;4989526;28;20486;-88
2021/07/25 03:49:37;;;;;;;11.17;10.07;;;19.50;99.90;;;;;;5000040;28;20455;-87
2021/07/25 03:52:07;;;;;;;12.03;10.50;;;19.50;99.90;;;;;;4997190;28;20478;-87
2021/07/25 03:54:36;;;;;;;13.33;10.90;;;19.60;99.90;;;;;;4998730;28;20462;-87
2021/07/25 03:57:04;;;;;;;12.10;10.10;;;19.40;99.90;;;;;;4991085;28;20547;-88
2021/07/25 03:59:33;;;;;;;14.70;11.30;;;19.40;99.90;;;;;;4993639;28;20481;-89
2021/07/25 04:02:02;;;;;;;13.30;10.40;;;19.30;99.90;;;;;;4994346;28;20469;-86
2021/07/25 04:04:30;;;;;;;12.63;11.23;;;19.30;99.90;;;;;;4995693;28;20469;-87
2021/07/25 04:06:58;;;;;;;16.33;11.03;;;19.20;99.90;;;;;;4998485;28;20471;-87
2021/07/25 04:09:25;;;;;;;12.30;11.03;;;19.10;99.90;;;;;;5003170;28;20450;-87
2021/07/25 04:11:55;;;;;;;12.40;11.03;;;18.90;99.90;;;;;;4994848;28;20454;-87
2021/07/25 04:14:23;;;;;;;12.80;10.67;;;18.80;99.90;;;;;;4991133;28;20446;-87
2021/07/25 04:16:50;;;;;;;15.50;12.90;;;18.90;99.90;;;;;;4994643;28;20482;-86
2021/07/25 04:19:18;;;;;;;12.87;11.63;;;18.90;99.90;;;;;;4997029;28;20883;-86
2021/07/25 04:21:45;;;;;;;13.13;11.70;;;19.00;99.90;;;;;;4992734;28;20731;-86
2021/07/25 04:24:17;;;;;;;13.63;12.27;;;19.10;99.90;;;;;;4993915;28;20450;-87
2021/07/25 04:26:45;;;;;;;17.50;15.73;;;19.20;99.90;;;;;;4999310;28;20704;-86
2021/07/25 04:29:13;;;;;;;14.40;13.00;;;19.00;99.90;;;;;;5004121;28;20520;-88
2021/07/25 04:31:40;;;;;;;15.60;14.00;;;19.00;99.90;;;;;;4985992;28;20481;-87
2021/07/25 04:34:08;;;;;;;15.07;13.20;;;19.00;99.90;;;;;;4993864;28;20447;-88
2021/07/25 04:36:35;;;;;;;15.43;13.90;;;18.90;99.90;;;;;;4988871;28;20475;-88
2021/07/25 04:39:06;;;;;;;17.70;13.77;;;18.80;99.90;;;;;;5002675;28;20467;-88
2021/07/25 04:41:39;;;;;;;15.63;14.03;;;18.80;99.90;;;;;;4987562;28;20546;-90
2021/07/25 04:44:16;;;;;;;16.23;14.50;;;18.90;99.90;;;;;;4986862;28;20447;-89
2021/07/25 04:46:47;;;;;;;15.10;13.60;;;18.90;99.90;;;;;;5001207;28;20451;-89
2021/07/25 04:49:19;;;;;;;13.53;12.13;;;19.00;99.90;;;;;;4992506;28;20545;-89
2021/07/25 04:51:51;;;;;;;14.80;13.30;;;19.10;99.90;;;;;;4990696;28;20535;-87
2021/07/25 04:54:25;;;;;;;12.23;10.93;;;19.00;99.90;;;;;;4992726;28;20438;-89
2021/07/25 04:57:04;;;;;;;14.90;13.10;;;19.10;99.90;;;;;;5021468;28;20434;-92
2021/07/25 04:59:47;;;;;;;13.23;11.83;;;19.00;99.90;;;;;;5004962;28;20470;-90
2021/07/25 05:02:16;;;;;;;14.20;12.13;;;18.70;99.90;;;;;;5001203;28;20466;-90
2021/07/25 05:04:51;;;;;;;12.37;11.17;;;18.80;99.90;;;;;;5018048;28;20455;-90
2021/07/25 05:07:18;;;;;;;16.17;13.00;;;18.80;99.90;;;;;;4980782;28;20497;-88
2021/07/25 05:09:46;;;;;;;13.97;12.30;;;18.90;99.90;;;;;;4974861;28;20469;-89
2021/07/25 05:12:36;;;;;;;15.00;12.20;;;18.80;99.90;;;;;;4999085;28;20569;-88
2021/07/25 05:15:06;;;;;;;16.33;12.13;;;18.80;99.90;;;;;;4990047;28;20440;-88
2021/07/25 05:17:55;;;;;;;13.50;12.13;;;18.70;99.90;;;;;;5017048;28;20445;-87
2021/07/25 05:20:46;;;;;;;15.27;12.10;;;18.70;99.90;;;;;;5000980;28;20498;-91
2021/07/25 05:23:17;;;;;;;12.93;11.70;;;18.90;99.90;;;;;;4994534;28;20529;-88
2021/07/25 05:25:50;;;;;;;12.40;11.20;;;18.90;99.90;;;;;;4997868;28;20517;-86
2021/07/25 05:28:20;;;;;;;18.13;14.80;;;19.00;99.90;;;;;;5003208;28;20478;-91
2021/07/25 05:30:55;;;;;;;13.30;12.00;;;19.00;99.90;;;;;;5009963;28;20423;-90
2021/07/25 05:33:23;;;;;;;13.13;11.67;;;19.00;99.90;;;;;;4979321;28;20478;-89
2021/07/25 05:35:55;;;;;;;16.47;11.77;;;19.10;99.90;;;;;;4997235;28;20459;-89
2021/07/25 05:38:23;;;;;;;13.53;11.80;;;19.10;99.90;;;;;;5004900;28;20468;-91
2021/07/25 05:40:50;;;;;;;12.63;11.00;;;19.20;99.90;;;;;;5008732;28;20439;-88
2021/07/25 05:43:17;;;;;;;11.00;9.90;;;19.20;99.90;;;;;;4998815;28;20439;-87
2021/07/25 05:45:48;;;;;;;11.00;9.90;;;19.40;99.90;;;;;;4999551;28;20510;-87
2021/07/25 05:48:16;;;;;;;11.07;9.97;;;19.60;99.90;;;;;;4999974;28;20500;-86
2021/07/25 05:50:53;;;;;;;10.50;9.47;;;19.70;99.90;;;;;;5010310;28;20451;-89
2021/07/25 05:53:25;;;;;;;10.77;9.70;;;19.90;99.90;;;;;;5000603;28;20485;-91
2021/07/25 05:55:52;;;;;;;10.10;9.10;;;19.90;99.90;;;;;;4996355;28;20515;-89
2021/07/25 05:58:20;;;;;;;11.40;10.13;;;19.90;99.90;;;;;;4997190;28;20478;-89
2021/07/25 06:00:49;;;;;;;11.00;9.80;;;20.00;99.90;;;;;;5011535;28;20451;-87
2021/07/25 06:03:17;;;;;;;9.70;8.70;;;20.10;99.90;;;;;;4992770;28;20476;-87
2021/07/25 06:05:44;;;;;;;9.40;8.50;;;20.00;99.90;;;;;;5001181;28;20510;-86
2021/07/25 06:08:12;;;;;;;9.27;8.33;;;20.10;99.90;;;;;;4980753;28;20555;-86
2021/07/25 06:10:42;;;;;;;8.17;7.47;;;20.40;99.90;;;;;;4984443;28;20991;-86
2021/07/25 06:13:11;;;;;;;10.37;8.27;;;20.50;99.90;;;;;;4984045;28;20476;-88
2021/07/25 06:15:38;;;;;;;9.23;6.80;;;20.60;99.90;;;;;;4980104;28;20508;-88
2021/07/25 06:18:07;;;;;;;8.30;7.30;;;20.50;99.90;;;;;;4999307;28;20490;-90
2021/07/25 06:20:34;;;;;;;7.90;6.97;;;20.60;99.90;;;;;;5011585;28;20466;-88
2021/07/25 06:23:03;;;;;;;6.77;6.10;;;20.70;99.90;;;;;;4992154;28;20511;-87
2021/07/25 06:25:34;;;;;;;8.57;6.77;;;20.80;99.90;;;;;;4981839;28;20476;-88
2021/07/25 06:28:03;;;;;;;8.50;7.40;;;20.80;99.90;;;;;;5000173;28;20486;-88
2021/07/25 06:30:31;;;;;;;8.33;6.97;;;20.80;99.90;;;;;;5001880;28;20443;-88
2021/07/25 06:33:09;;;;;;;9.10;6.90;;;20.80;99.90;;;;;;4986248;28;20535;-90
2021/07/25 06:35:39;;;;;;;7.90;6.63;;;20.80;99.90;;;;;;4997763;28;20448;-86
2021/07/25 06:38:19;;;;;;;7.73;6.93;;;20.80;99.90;;;;;;4987860;28;20483;-87
2021/07/25 06:40:53;;;;;;;7.50;5.80;;;21.00;99.90;;;;;;4998824;28;20476;-88
2021/07/25 06:43:22;;;;;;;8.47;7.17;;;21.10;99.90;;;;;;4993547;28;20904;-87
2021/07/25 06:45:50;;;;;;;8.53;7.47;;;21.20;99.90;;;;;;4993901;28;20451;-88
2021/07/25 06:48:27;;;;;;;8.00;7.20;;;21.10;99.90;;;;;;4994314;28;20466;-88
2021/07/25 06:50:56;;;;;;;6.87;6.27;;;21.10;99.90;;;;;;4997834;28;20554;-91
2021/07/25 06:53:25;;;;;;;7.20;6.50;;;21.40;99.90;;;;;;4986907;28;20487;-88
2021/07/25 06:55:54;;;;;;;8.27;6.97;;;21.50;99.90;;;;;;4997171;28;20469;-88
2021/07/25 06:58:33;;;;;;;9.00;7.80;;;21.50;99.90;;;;;;5004755;28;20525;-86
2021/07/25 07:01:03;;;;;;;7.93;7.13;;;21.50;99.90;;;;;;4998866;28;20462;-87
2021/07/25 07:03:33;;;;;;;8.47;7.57;;;21.60;99.90;;;;;;4989457;28;20467;-88
2021/07/25 07:06:05;;;;;;;7.83;7.03;;;21.70;99.90;;;;;;5001646;28;20529;-87
2021/07/25 07:08:31;;;;;;;8.70;7.90;;;21.60;99.90;;;;;;4985870;28;20471;-88
2021/07/25 07:10:59;;;;;;;9.87;7.33;;;21.90;99.90;;;;;;5002179;28;20554;-88
2021/07/25 07:13:26;;;;;;;9.53;8.60;;;21.80;99.90;;;;;;4994663;28;20482;-86
2021/07/25 07:15:54;;;;;;;8.43;7.13;;;21.90;99.90;;;;;;4986118;28;20818;-87
2021/07/25 07:18:21;;;;;;;8.43;7.40;;;22.20;99.90;;;;;;4987701;28;20476;-89
2021/07/25 07:20:51;;;;;;;8.00;7.30;;;22.30;99.90;;;;;;4998136;28;20463;-87
2021/07/25 07:23:21;;;;;;;9.00;7.00;;;22.30;99.90;;;;;;4998360;28;20466;-87
2021/07/25 07:25:49;;;;;;;9.00;7.57;;;22.20;99.90;;;;;;4997618;28;20450;-89
2021/07/25 07:28:19;;;;;;;8.80;7.90;;;22.10;99.90;;;;;;5002216;28;20841;-87
2021/07/25 07:30:51;;;;;;;7.17;6.47;;;22.30;99.90;;;;;;4975178;28;20448;-86
2021/07/25 07:33:21;;;;;;;8.10;7.30;;;22.50;99.90;;;;;;4991515;28;20529;-87
2021/07/25 07:35:52;;;;;;;7.27;6.57;;;22.50;99.90;;;;;;4982718;28;20450;-88
2021/07/25 07:38:21;;;;;;;9.03;7.10;;;22.50;99.90;;;;;;5005746;28;20499;-93
2021/07/25 07:40:53;;;;;;;7.30;6.50;;;22.50;99.90;;;;;;5003539;28;20459;-88
2021/07/25 07:43:23;;;;;;;7.67;6.63;;;22.50;99.90;;;;;;5098096;22;20541;-89
2021/07/25 07:45:53;;;;;;;7.33;5.70;;;22.50;99.90;;;;;;5023296;28;20431;-91
2021/07/25 07:48:21;;;;;;;6.63;6.03;;;22.40;99.90;;;;;;5021837;28;20482;-89
2021/07/25 07:50:49;;;;;;;11.50;6.80;;;22.60;99.90;;;;;;5023573;28;20435;-91
2021/07/25 07:53:20;;;;;;;6.80;6.20;;;22.60;99.90;;;;;;5019323;28;20471;-90
2021/07/25 07:55:48;;;;;;;8.03;6.20;;;22.70;99.90;;;;;;5001156;28;20455;-87
2021/07/25 07:58:20;;;;;;;5.40;4.93;;;22.70;99.90;;;;;;4998400;28;20467;-92
2021/07/25 08:00:58;;;;;;;5.20;4.70;;;22.50;99.90;;;;;;5014208;28;20509;-88
2021/07/25 08:03:28;;;;;;;6.17;4.87;;;23.10;99.90;;;;;;5007411;28;20428;-90
2021/07/25 08:06:00;;;;;;;6.40;4.90;;;23.50;99.90;;;;;;5009724;28;20446;-87
2021/07/25 08:08:31;;;;;;;5.83;5.20;;;23.40;99.90;;;;;;5004984;28;20470;-88
2021/07/25 08:10:58;;;;;;;5.67;5.07;;;23.80;99.60;;;;;;5006382;28;20454;-87
2021/07/25 08:13:26;;;;;;;5.90;5.13;;;23.90;99.10;;;;;;5004632;28;20474;-87
2021/07/25 08:15:55;;;;;;;6.43;5.67;;;23.80;99.50;;;;;;5008528;28;20442;-88
2021/07/25 08:18:23;;;;;;;5.57;5.07;;;23.80;99.60;;;;;;5005259;28;20469;-87
2021/07/25 08:21:16;;;;;;;6.70;5.40;;;24.00;99.00;;;;;;4985630;28;20514;-87
2021/07/25 08:23:45;;;;;;;6.33;5.10;;;24.50;97.80;;;;;;5020260;28;20442;-90
2021/07/25 08:26:12;;;;;;;5.70;4.77;;;25.10;97.00;;;;;;5015538;28;20505;-88
2021/07/25 08:28:40;;;;;;;5.20;4.60;;;25.40;95.80;;;;;;5019368;28;20470;-89
2021/07/25 08:31:07;;;;;;;5.53;5.03;;;26.20;94.70;;;;;;5012851;28;20443;-86
2021/07/25 08:33:35;;;;;;;7.33;4.90;;;26.90;92.70;;;;;;5004611;28;20501;-87
2021/07/25 08:36:07;;;;;;;5.50;4.53;;;27.80;90.80;;;;;;4998150;28;20447;-85
2021/07/25 08:38:35;;;;;;;7.13;4.97;;;28.50;87.10;;;;;;5000943;28;20475;-86
2021/07/25 08:41:21;;;;;;;6.40;4.43;;;29.40;83.60;;;;;;4987448;28;20470;-87
2021/07/25 08:43:58;;;;;;;4.53;4.03;;;30.80;76.80;;;;;;5003441;28;20489;-87
2021/07/25 08:46:31;;;;;;;4.87;4.47;;;31.30;72.10;;;;;;5004262;28;20446;-88
2021/07/25 08:49:17;;;;;;;5.30;4.60;;;31.90;69.70;;;;;;5014031;28;20473;-89
2021/07/25 08:51:58;;;;;;;5.90;4.03;;;32.60;65.60;;;;;;5008888;28;20824;-88
2021/07/25 08:54:29;;;;;;;4.57;4.17;;;33.00;62.70;;;;;;5003812;28;20559;-88
2021/07/25 08:57:02;;;;;;;4.30;3.90;;;33.10;60.20;;;;;;5004665;28;20446;-88
2021/07/25 08:59:36;;;;;;;4.67;4.27;;;32.90;60.00;;;;;;5009041;28;20458;-87
2021/07/25 09:02:20;;;;;;;4.97;4.50;;;32.50;61.10;;;;;;5021395;28;20454;-89
2021/07/25 09:04:49;;;;;;;4.63;4.33;;;33.00;60.00;;;;;;5004661;28;20461;-87
2021/07/25 09:07:18;;;;;;;4.20;3.87;;;33.10;58.20;;;;;;5005400;28;20478;-87
2021/07/25 09:09:49;;;;;;;5.97;4.53;;;33.10;57.90;;;;;;5024419;28;20454;-87
2021/07/25 09:12:18;;;;;;;4.00;3.63;;;33.40;57.60;;;;;;5019576;28;20485;-88
2021/07/25 09:15:03;;;;;;;5.93;3.93;;;33.80;55.90;;;;;;5000040;28;20474;-88
2021/07/25 09:17:53;;;;;;;3.60;3.30;;;34.00;54.70;;;;;;5002359;28;20557;-89
2021/07/25 09:20:26;;;;;;;3.70;3.23;;;34.00;53.30;;;;;;5005241;28;20441;-90
2021/07/25 09:23:10;;;;;;;4.07;3.60;;;33.90;53.30;;;;;;5017010;28;20462;-88
2021/07/25 09:26:05;;;;;;;3.80;3.50;;;34.00;53.70;;;;;;5014830;28;20470;-92
2021/07/25 09:28:38;;;;;;;4.20;3.87;;;34.20;52.70;;;;;;5019120;28;20549;-90
2021/07/25 09:31:27;;;;;;;4.70;3.70;;;34.20;52.30;;;;;;5019119;28;20449;-90
2021/07/25 09:34:07;;;;;;;4.40;3.40;;;33.70;52.60;;;;;;5019727;28;20506;-92
2021/07/25 09:37:05;;;;;;;3.33;3.03;;;33.50;53.30;;;;;;5021574;28;20479;-93
2021/07/25 09:39:46;;;;;;;5.07;4.63;;;33.60;52.60;;;;;;5012241;28;20458;-88
2021/07/25 09:42:14;;;;;;;3.70;3.40;;;34.00;52.10;;;;;;4999698;28;20471;-88
2021/07/25 09:45:15;;;;;;;3.60;3.40;;;34.60;50.70;;;;;;5007600;28;20467;-88
2021/07/25 09:50:29;;;;;;;3.20;3.00;;;34.30;49.70;;;;;;5040942;22;20493;-88
2021/07/25 09:53:00;;;;;;;3.50;3.13;;;32.50;52.50;;;;;;5023490;28;20454;-86
2021/07/25 09:55:44;;;;;;;3.00;2.80;;;31.80;54.50;;;;;;5005766;28;20446;-87
2021/07/25 09:58:15;;;;;;;3.03;2.60;;;30.60;57.10;;;;;;4992141;28;20557;-89
2021/07/25 10:00:46;;;;;;;5.30;3.30;;;29.80;58.90;;;;;;4997298;28;20473;-87
2021/07/25 10:03:32;;;;;;;4.23;3.13;;;28.80;61.70;;;;;;4986503;28;20451;-88
2021/07/25 10:06:45;;;;;;;3.10;2.90;;;28.30;64.50;;;;;;4996871;28;20431;-89
2021/07/25 10:09:26;;;;;;;3.33;2.83;;;28.00;65.20;;;;;;4995712;28;20456;-90
2021/07/25 10:11:58;;;;;;;3.83;3.50;;;27.70;67.70;;;;;;4997338;28;20498;-87
2021/07/25 10:14:29;;;;;;;4.03;3.70;;;27.40;69.00;;;;;;4984665;28;20486;-88
2021/07/25 10:17:19;;;;;;;4.10;3.70;;;27.30;70.50;;;;;;4982692;28;20483;-87
2021/07/25 10:19:56;;;;;;;3.53;3.13;;;26.80;73.80;;;;;;4991507;28;20455;-89
2021/07/25 10:22:38;;;;;;;3.40;3.10;;;26.90;75.10;;;;;;4992712;28;20506;-87
2021/07/25 10:25:18;;;;;;;7.17;3.90;;;27.30;75.10;;;;;;4988874;28;20443;-88
2021/07/25 10:27:53;;;;;;;3.90;3.37;;;28.00;72.40;;;;;;4991021;28;20483;-91
2021/07/25 10:30:32;;;;;;;4.20;3.80;;;28.10;71.50;;;;;;4984269;28;21019;-88
2021/07/25 10:33:07;;;;;;;3.40;3.10;;;27.80;73.70;;;;;;4997122;28;20448;-86
2021/07/25 10:35:42;;;;;;;3.20;2.90;;;29.70;67.30;;;;;;4980539;28;20551;-87
2021/07/25 10:38:21;;;;;;;3.20;3.00;;;30.50;62.50;;;;;;4978094;28;20482;-87
2021/07/25 10:40:56;;;;;;;4.47;3.20;;;30.90;62.30;;;;;;4978505;28;20451;-88
2021/07/25 10:43:38;;;;;;;4.90;3.13;;;31.10;60.00;;;;;;4986565;28;20487;-89
2021/07/25 10:46:24;;;;;;;3.17;2.73;;;30.40;60.70;;;;;;4974592;28;20498;-88
2021/07/25 10:49:10;;;;;;;3.63;3.30;;;29.80;63.20;;;;;;4994001;28;20492;-88
2021/07/25 10:51:59;;;;;;;4.60;3.80;;;29.10;65.60;;;;;;4994352;28;20510;-87
2021/07/25 10:54:29;;;;;;;3.70;3.40;;;29.00;67.50;;;;;;4977860;28;20512;-87
2021/07/25 10:57:09;;;;;;;3.50;3.20;;;29.20;67.10;;;;;;4979118;28;20483;-88
2021/07/25 10:59:50;;;;;;;5.27;2.90;;;29.10;66.40;;;;;;4978100;28;20448;-87
2021/07/25 11:02:22;;;;;;;4.40;4.00;;;28.60;67.80;;;;;;4993701;28;20456;-87
2021/07/25 11:04:56;;;;;;;3.30;3.00;;;28.10;70.60;;;;;;4995477;28;20462;-87
2021/07/25 11:07:23;;;;;;;3.23;3.03;;;27.70;71.30;;;;;;4997061;28;20499;-87
2021/07/25 11:10:12;;;;;;;3.63;3.30;;;27.20;73.90;;;;;;4996157;28;20507;-88
2021/07/25 11:13:01;;;;;;;3.87;3.10;;;27.20;74.00;;;;;;4990834;28;20478;-86
2021/07/25 11:15:42;;;;;;;3.33;3.13;;;27.00;74.60;;;;;;4989650;28;20495;-87
2021/07/25 11:18:34;;;;;;;4.67;3.47;;;26.70;75.10;;;;;;4978340;28;20476;-87
2021/07/25 11:21:13;;;;;;;4.53;2.90;;;26.70;76.80;;;;;;4981279;28;20451;-87
2021/07/25 11:23:47;;;;;;;3.20;2.90;;;27.60;74.80;;;;;;4997595;28;20507;-89
2021/07/25 11:26:36;;;;;;;9.97;8.97;;;28.80;70.80;;;;;;4995223;28;20432;-90
2021/07/25 11:29:16;;;;;;;4.47;4.13;;;28.80;69.00;;;;;;4980385;28;20503;-86
2021/07/25 11:31:58;;;;;;;4.20;3.20;;;28.30;70.40;;;;;;4983975;28;20947;-87
2021/07/25 11:34:39;;;;;;;3.37;3.07;;;28.30;70.10;;;;;;4983306;28;20483;-87
2021/07/25 11:37:23;;;;;;;3.23;2.83;;;28.00;70.10;;;;;;4981442;28;20507;-87
2021/07/25 11:40:01;;;;;;;3.10;2.90;;;27.40;72.20;;;;;;4990818;28;20558;-88
2021/07/25 11:42:46;;;;;;;3.73;2.90;;;27.70;72.60;;;;;;4979897;28;20466;-87
2021/07/25 11:45:27;;;;;;;3.50;3.20;;;27.60;72.30;;;;;;4982824;28;20459;-88
2021/07/25 11:52:00;;;;;;;4.23;2.90;;;26.90;74.80;;;;;;4963760;28;20504;-87
2021/07/25 11:54:47;;;;;;;3.13;2.83;;;26.70;76.30;;;;;;4979712;28;20480;-87
2021/07/25 11:57:23;;;;;;;5.17;3.20;;;27.10;74.00;;;;;;4989470;28;20503;-90
2021/07/25 12:00:01;;;;;;;2.97;2.30;;;27.60;72.10;;;;;;4999386;28;20428;-92
2021/07/25 12:03:15;;;;;;;4.00;2.33;;;28.60;68.70;;;;;;4891499;29;20488;-88
2021/07/25 12:06:08;;;;;;;3.30;2.53;;;29.70;63.50;;;;;;4887262;29;20523;-88
2021/07/25 12:09:52;;;;;;;2.70;2.40;;;30.10;60.40;;;;;;4892758;29;20460;-87
2021/07/25 12:12:42;;;;;;;;;;;;;;;;;;;;;
2021/07/25 12:15:31;;;;;;;2.53;2.33;;;31.00;58.10;;;;;;4891586;29;20473;-86
2021/07/25 12:18:36;;;;;;;2.60;2.10;;;31.40;55.60;;;;;;4904765;29;20621;-86
2021/07/25 12:21:30;;;;;;;2.40;2.13;;;31.20;56.20;;;;;;4890360;29;20535;-88
2021/07/25 12:23:59;;;;;;;2.87;2.27;;;31.50;55.80;;;;;;4891291;29;20547;-89
2021/07/25 12:26:42;;;;;;;2.70;2.40;;;31.90;54.10;;;;;;4854812;29;20467;-88
2021/07/25 12:29:50;;;;;;;2.50;2.30;;;31.60;55.00;;;;;;4889576;29;22131;-91
2021/07/25 12:32:49;;;;;;;3.47;2.10;;;31.70;54.90;;;;;;4903583;29;20465;-88
2021/07/25 12:35:21;;;;;;;2.40;1.97;;;31.30;54.30;;;;;;4861925;29;20503;-89
2021/07/25 12:37:59;;;;;;;2.67;2.47;;;30.90;54.60;;;;;;4970191;23;20538;-87
2021/07/25 12:41:10;;;;;;;2.40;2.20;;;30.20;56.30;;;;;;5000561;28;20438;-88
2021/07/25 12:43:59;;;;;;;3.17;2.87;;;30.50;55.70;;;;;;4971564;28;20458;-85
2021/07/25 12:46:29;;;;;;;3.60;2.07;;;30.50;55.70;;;;;;5010712;28;20553;-88
2021/07/25 12:49:05;;;;;;;4.50;2.07;;;30.30;56.80;;;;;;5021323;28;20486;-91
2021/07/25 12:51:42;;;;;;;2.40;2.20;;;30.80;55.60;;;;;;5020999;28;20485;-89
2021/07/25 12:54:12;;;;;;;2.90;2.30;;;31.20;54.90;;;;;;5020657;28;20553;-91
2021/07/25 12:56:42;;;;;;;3.00;2.30;;;31.00;53.80;;;;;;5022328;28;20454;-90
2021/07/25 12:59:20;;;;;;;1.80;1.70;;;31.20;53.70;;;;;;5044883;23;20474;-90
2021/07/25 13:04:44;;;;;;;2.10;1.90;;;31.60;50.30;;;;;;4999329;28;20462;-89
2021/07/25 13:07:14;;;;;;;1.90;1.80;;;31.80;49.10;;;;;;5014784;28;20460;-90
2021/07/25 13:09:42;;;;;;;2.20;1.90;;;31.30;48.50;;;;;;5026115;28;20473;-89
2021/07/25 13:12:27;;;;;;;1.83;1.73;;;31.10;48.20;;;;;;5019521;28;20456;-86
2021/07/25 13:14:58;;;;;;;1.60;1.50;;;31.30;47.70;;;;;;5010572;28;20476;-88
2021/07/25 13:17:49;;;;;;;2.33;1.90;;;30.90;48.00;;;;;;5009487;28;20485;-87
2021/07/25 13:20:36;;;;;;;2.03;1.93;;;30.50;49.40;;;;;;4997506;28;20426;-89
2021/07/25 13:23:09;;;;;;;2.13;1.93;;;30.50;49.60;;;;;;5028376;28;20453;-90
2021/07/25 13:25:41;;;;;;;3.20;2.17;;;30.50;49.90;;;;;;5018863;28;20498;-89
2021/07/25 13:28:34;;;;;;;1.83;1.73;;;30.90;49.60;;;;;;5016705;28;20470;-90